createdAt,value
2023-04-03T00:02:11.197Z,0.47
2023-04-03T00:04:38.758Z,0.44
2023-04-03T00:07:06.350Z,0.42
2023-04-03T00:09:33.878Z,0.42
2023-04-03T00:12:01.546Z,0.40
2023-04-03T00:14:29.039Z,0.41
2023-04-03T00:16:56.609Z,0.40
2023-04-03T00:19:24.180Z,0.38
2023-04-03T00:21:51.852Z,0.35
2023-04-03T00:24:19.335Z,0.33
2023-04-03T00:26:46.800Z,0.34
2023-04-03T00:29:14.430Z,0.34
2023-04-03T00:31:41.903Z,0.36
2023-04-03T00:34:09.377Z,0.37
2023-04-03T00:36:36.916Z,0.37
2023-04-03T00:39:04.533Z,0.38
2023-04-03T00:41:32.955Z,0.38
2023-04-03T00:44:00.692Z,0.40
2023-04-03T00:46:28.238Z,0.40
2023-04-03T00:48:56.058Z,0.39
2023-04-03T00:51:23.549Z,0.41
2023-04-03T00:53:51.117Z,0.38
2023-04-03T00:56:18.640Z,0.34
2023-04-03T00:58:46.232Z,0.32
2023-04-03T01:01:13.770Z,0.31
2023-04-03T01:03:41.385Z,0.31
2023-04-03T01:06:08.904Z,0.29
2023-04-03T01:08:36.583Z,0.24
2023-04-03T01:11:04.056Z,0.21
2023-04-03T01:13:31.562Z,0.18
2023-04-03T01:15:59.328Z,0.14
2023-04-03T01:18:26.971Z,0.11
2023-04-03T01:20:54.524Z,0.10
2023-04-03T01:23:21.980Z,0.10
2023-04-03T01:25:49.518Z,0.13
2023-04-03T01:28:17.139Z,0.15
2023-04-03T01:30:44.593Z,0.16
2023-04-03T01:33:12.088Z,0.17
2023-04-03T01:35:39.825Z,0.18
2023-04-03T01:38:07.930Z,0.20
2023-04-03T01:40:35.877Z,0.17
2023-04-03T01:43:03.584Z,0.16
2023-04-03T01:45:31.146Z,0.16
2023-04-03T01:47:58.770Z,0.17
2023-04-03T01:50:26.422Z,0.18
2023-04-03T01:52:53.952Z,0.17
2023-04-03T01:55:21.478Z,0.15
2023-04-03T01:57:49.121Z,0.14
2023-04-03T02:00:16.604Z,0.10
2023-04-03T02:02:44.167Z,0.07
2023-04-03T02:05:11.884Z,0.04
2023-04-03T02:07:39.365Z,0.02
2023-04-03T02:10:07.247Z,0.02
2023-04-03T02:12:34.841Z,0.04
2023-04-03T02:15:02.339Z,0.05
2023-04-03T02:17:29.973Z,0.05
2023-04-03T02:19:57.640Z,0.07
2023-04-03T02:22:25.288Z,0.07
2023-04-03T02:24:52.926Z,0.09
2023-04-03T02:27:20.572Z,0.10
2023-04-03T02:29:48.050Z,0.09
2023-04-03T02:32:15.583Z,0.09
2023-04-03T02:34:44.421Z,0.07
2023-04-03T02:37:11.910Z,0.09
2023-04-03T02:39:39.415Z,0.11
2023-04-03T02:42:07.154Z,0.09
2023-04-03T02:44:34.629Z,0.06
2023-04-03T02:47:02.150Z,0.03
2023-04-03T02:49:29.838Z,-0.01
2023-04-03T02:51:57.414Z,-0.04
2023-04-03T02:54:28.745Z,-0.07
2023-04-03T02:56:56.313Z,-0.09
2023-04-03T02:59:23.820Z,-0.11
2023-04-03T03:01:51.317Z,-0.12
2023-04-03T03:04:18.833Z,-0.13
2023-04-03T03:06:47.879Z,-0.14
2023-04-03T03:09:15.719Z,-0.13
2023-04-03T03:11:43.388Z,-0.13
2023-04-03T03:14:11.112Z,-0.16
2023-04-03T03:16:38.604Z,-0.18
2023-04-03T03:19:06.224Z,-0.20
2023-04-03T03:21:33.755Z,-0.25
2023-04-03T03:24:01.250Z,-0.28
2023-04-03T03:26:28.766Z,-0.31
2023-04-03T03:28:56.320Z,-0.32
2023-04-03T03:31:23.765Z,-0.33
2023-04-03T03:33:51.322Z,-0.34
2023-04-03T03:36:18.954Z,-0.33
2023-04-03T03:38:46.471Z,-0.29
2023-04-03T03:41:14.021Z,-0.28
2023-04-03T03:43:42.071Z,-0.30
2023-04-03T03:46:09.589Z,-0.32
2023-04-03T03:48:37.514Z,-0.34
2023-04-03T03:51:05.126Z,-0.32
2023-04-03T03:53:32.839Z,-0.32
2023-04-03T03:56:00.454Z,-0.34
2023-04-03T03:58:28.055Z,-0.31
2023-04-03T04:00:56.100Z,-0.28
2023-04-03T04:03:23.734Z,-0.31
2023-04-03T04:05:51.355Z,-0.34
2023-04-03T04:08:19.044Z,-0.34
2023-04-03T04:10:46.658Z,-0.35
2023-04-03T04:13:14.116Z,-0.36
2023-04-03T04:15:41.700Z,-0.34
2023-04-03T04:18:09.332Z,-0.39
2023-04-03T04:20:36.823Z,-0.40
2023-04-03T04:23:04.337Z,-0.37
2023-04-03T04:25:31.843Z,-0.38
2023-04-03T04:27:59.336Z,-0.43
2023-04-03T04:30:29.639Z,-0.46
2023-04-03T04:32:57.268Z,-0.48
2023-04-03T04:35:24.774Z,-0.50
2023-04-03T04:37:52.473Z,-0.49
2023-04-03T04:40:20.126Z,-0.51
2023-04-03T04:42:47.572Z,-0.53
2023-04-03T04:45:16.043Z,-0.53
2023-04-03T04:47:43.576Z,-0.54
2023-04-03T04:50:11.260Z,-0.54
2023-04-03T04:52:39.000Z,-0.55
2023-04-03T04:55:06.725Z,-0.59
2023-04-03T04:57:34.651Z,-0.63
2023-04-03T05:00:02.305Z,-0.64
2023-04-03T05:02:29.878Z,-0.65
2023-04-03T05:04:57.498Z,-0.67
2023-04-03T05:07:24.976Z,-0.70
2023-04-03T05:09:52.734Z,-0.69
2023-04-03T05:12:20.269Z,-0.68
2023-04-03T05:14:47.785Z,-0.70
2023-04-03T05:17:15.326Z,-0.74
2023-04-03T05:19:42.847Z,-0.76
2023-04-03T05:22:10.459Z,-0.77
2023-04-03T05:24:38.053Z,-0.77
2023-04-03T05:27:05.780Z,-0.74
2023-04-03T05:29:33.219Z,-0.72
2023-04-03T05:32:01.052Z,-0.71
2023-04-03T05:34:29.129Z,-0.71
2023-04-03T05:36:56.788Z,-0.69
2023-04-03T05:39:25.348Z,-0.67
2023-04-03T05:41:52.864Z,-0.69
2023-04-03T05:44:20.589Z,-0.71
2023-04-03T05:46:48.570Z,-0.71
2023-04-03T05:49:16.172Z,-0.70
2023-04-03T05:51:43.761Z,-0.66
2023-04-03T05:54:11.401Z,-0.68
2023-04-03T05:56:38.879Z,-0.71
2023-04-03T05:59:06.461Z,-0.73
2023-04-03T06:01:35.249Z,-0.74
2023-04-03T06:04:04.086Z,-0.72
2023-04-03T06:06:31.890Z,-0.74
2023-04-03T06:09:00.739Z,-0.74
2023-04-03T06:11:29.546Z,-0.75
2023-04-03T06:13:57.324Z,-0.74
2023-04-03T06:16:25.432Z,-0.74
2023-04-03T06:18:52.917Z,-0.75
2023-04-03T06:21:20.815Z,-0.74
2023-04-03T06:23:48.372Z,-0.73
2023-04-03T06:26:16.193Z,-0.70
2023-04-03T06:28:43.700Z,-0.72
2023-04-03T06:31:11.308Z,-0.76
2023-04-03T06:33:39.008Z,-0.79
2023-04-03T06:36:06.708Z,-0.81
2023-04-03T06:38:34.275Z,-0.79
2023-04-03T06:41:02.051Z,-0.69
2023-04-03T06:43:29.612Z,-0.72
2023-04-03T06:45:57.409Z,-0.76
2023-04-03T06:48:25.110Z,-0.83
2023-04-03T06:50:53.229Z,-0.88
2023-04-03T06:53:21.050Z,-0.88
2023-04-03T06:55:48.524Z,-0.91
2023-04-03T06:58:18.752Z,-0.96
2023-04-03T07:00:48.337Z,-1.01
2023-04-03T07:03:17.210Z,-1.07
2023-04-03T07:05:45.901Z,-1.06
2023-04-03T07:08:13.809Z,-1.06
2023-04-03T07:10:41.528Z,-1.04
2023-04-03T07:13:09.295Z,-1.01
2023-04-03T07:15:38.113Z,-0.98
2023-04-03T07:18:07.075Z,-0.96
2023-04-03T07:20:34.656Z,-0.84
2023-04-03T07:23:04.303Z,-0.75
2023-04-03T07:25:32.759Z,-0.84
2023-04-03T07:28:00.358Z,-0.90
2023-04-03T07:30:28.025Z,-0.90
2023-04-03T07:32:56.124Z,-0.94
2023-04-03T07:35:23.851Z,-0.95
2023-04-03T07:37:51.772Z,-0.94
2023-04-03T07:40:20.766Z,-0.93
2023-04-03T07:42:48.642Z,-0.95
2023-04-03T07:45:16.233Z,-0.98
2023-04-03T07:47:43.793Z,-0.97
2023-04-03T07:50:11.383Z,-0.98
2023-04-03T07:52:38.879Z,-0.97
2023-04-03T07:55:06.739Z,-0.93
2023-04-03T07:57:34.328Z,-0.90
2023-04-03T08:00:01.911Z,-0.87
2023-04-03T08:02:29.475Z,-0.86
2023-04-03T08:04:57.411Z,-0.84
2023-04-03T08:07:25.055Z,-0.80
2023-04-03T08:09:52.531Z,-0.80
2023-04-03T08:12:20.095Z,-0.80
2023-04-03T08:14:47.985Z,-0.85
2023-04-03T08:17:15.921Z,-0.98
2023-04-03T08:19:43.575Z,-1.04
2023-04-03T08:22:11.314Z,-1.15
2023-04-03T08:24:39.405Z,-1.21
2023-04-03T08:27:11.030Z,-1.31
2023-04-03T08:29:38.909Z,-1.33
2023-04-03T08:32:06.501Z,-1.35
2023-04-03T08:34:37.923Z,-1.37
2023-04-03T08:37:05.483Z,-1.35
2023-04-03T08:39:32.961Z,-1.30
2023-04-03T08:42:00.498Z,-1.24
2023-04-03T08:44:28.092Z,-1.15
2023-04-03T08:46:55.609Z,-1.14
2023-04-03T08:49:23.099Z,-1.09
2023-04-03T08:51:51.851Z,-1.00
2023-04-03T08:54:19.673Z,-0.93
2023-04-03T08:56:47.165Z,-0.92
2023-04-03T08:59:14.952Z,-0.92
2023-04-03T09:01:42.515Z,-0.89
2023-04-03T09:04:10.145Z,-0.92
2023-04-03T09:06:39.258Z,-0.94
2023-04-03T09:09:07.009Z,-0.95
2023-04-03T09:11:34.495Z,-1.00
2023-04-03T09:14:02.581Z,-1.00
2023-04-03T09:16:30.417Z,-1.08
2023-04-03T09:18:58.048Z,-1.14
2023-04-03T09:21:25.859Z,-1.18
2023-04-03T09:23:53.370Z,-1.19
2023-04-03T09:26:21.889Z,-1.22
2023-04-03T09:28:50.740Z,-1.23
2023-04-03T09:31:18.607Z,-1.19
2023-04-03T09:33:46.485Z,-1.09
2023-04-03T09:36:14.391Z,-1.06
2023-04-03T09:38:43.174Z,-1.07
2023-04-03T09:41:10.700Z,-1.05
2023-04-03T09:43:39.882Z,-1.07
2023-04-03T09:46:07.959Z,-1.10
2023-04-03T09:48:35.620Z,-1.12
2023-04-03T09:51:04.102Z,-1.11
2023-04-03T09:53:31.773Z,-1.12
2023-04-03T09:55:59.399Z,-1.20
2023-04-03T09:58:28.098Z,-1.19
2023-04-03T10:00:59.366Z,-1.25
2023-04-03T10:03:47.657Z,-1.30
2023-04-03T10:06:15.365Z,-1.34
2023-04-03T10:08:42.833Z,-1.33
2023-04-03T10:11:11.089Z,-1.35
2023-04-03T10:13:48.835Z,-1.40
2023-04-03T10:16:18.570Z,-1.41
2023-04-03T10:18:46.304Z,-1.42
2023-04-03T10:21:24.723Z,-1.41
2023-04-03T10:23:54.885Z,-1.45
2023-04-03T10:26:22.902Z,-1.46
2023-04-03T10:28:50.657Z,-1.48
2023-04-03T10:31:18.706Z,-1.52
2023-04-03T10:33:46.212Z,-1.56
2023-04-03T10:36:14.321Z,-1.53
2023-04-03T10:38:41.858Z,-1.49
2023-04-03T10:41:11.552Z,-1.46
2023-04-03T10:43:39.057Z,-1.50
2023-04-03T10:46:07.401Z,-1.46
2023-04-03T10:48:35.714Z,-1.40
2023-04-03T10:51:03.371Z,-1.34
2023-04-03T10:53:33.699Z,-1.34
2023-04-03T10:56:01.456Z,-1.35
2023-04-03T10:58:29.137Z,-1.33
2023-04-03T11:00:56.754Z,-1.28
2023-04-03T11:03:24.536Z,-1.25
2023-04-03T11:05:52.340Z,-1.20
2023-04-03T11:08:20.576Z,-1.11
2023-04-03T11:10:48.160Z,-1.07
2023-04-03T11:13:15.655Z,-1.01
2023-04-03T11:15:43.241Z,-1.00
2023-04-03T11:18:11.837Z,-0.99
2023-04-03T11:20:40.906Z,-0.98
2023-04-03T11:23:08.671Z,-0.96
2023-04-03T11:25:36.450Z,-0.90
2023-04-03T11:28:04.808Z,-0.79
2023-04-03T11:30:32.689Z,-0.69
2023-04-03T11:33:00.441Z,-0.60
2023-04-03T11:35:27.984Z,-0.59
2023-04-03T11:37:55.867Z,-0.50
2023-04-03T11:40:24.065Z,-0.47
2023-04-03T11:42:51.869Z,-0.52
2023-04-03T11:45:19.498Z,-0.50
2023-04-03T11:47:47.098Z,-0.52
2023-04-03T11:50:14.706Z,-0.48
2023-04-03T11:52:44.753Z,-0.40
2023-04-03T11:55:12.850Z,-0.39
2023-04-03T11:57:40.315Z,-0.26
2023-04-03T12:00:08.116Z,-0.32
2023-04-03T12:02:47.452Z,-0.36
2023-04-03T12:05:21.264Z,-0.41
2023-04-03T12:07:48.949Z,-0.44
2023-04-03T12:10:28.669Z,-0.52
2023-04-03T12:13:00.125Z,-0.65
2023-04-03T12:15:27.923Z,-0.70
2023-04-03T12:17:55.629Z,-0.60
2023-04-03T12:20:23.139Z,-0.56
2023-04-03T12:22:50.849Z,-0.59
2023-04-03T12:25:18.379Z,-0.59
2023-04-03T12:27:45.978Z,-0.57
2023-04-03T12:30:13.596Z,-0.56
2023-04-03T12:32:41.783Z,-0.57
2023-04-03T12:35:10.969Z,-0.50
2023-04-03T12:37:38.453Z,-0.47
2023-04-03T12:40:05.940Z,-0.42
2023-04-03T12:42:33.473Z,-0.44
2023-04-03T12:45:01.127Z,-0.37
2023-04-03T12:47:28.645Z,-0.35
2023-04-03T12:49:56.780Z,-0.38
2023-04-03T12:52:24.318Z,-0.36
2023-04-03T12:54:52.536Z,-0.39
2023-04-03T12:57:20.530Z,-0.41
2023-04-03T12:59:48.283Z,-0.40
2023-04-03T13:02:15.792Z,-0.44
2023-04-03T13:04:43.333Z,-0.49
2023-04-03T13:07:11.015Z,-0.48
2023-04-03T13:09:38.504Z,-0.46
2023-04-03T13:12:06.564Z,-0.42
2023-04-03T13:14:34.383Z,-0.28
2023-04-03T13:17:02.125Z,-0.19
2023-04-03T13:19:30.111Z,-0.20
2023-04-03T13:21:57.741Z,-0.27
2023-04-03T13:24:26.043Z,-0.52
2023-04-03T13:26:53.613Z,-0.59
2023-04-03T13:29:29.944Z,-0.63
2023-04-03T13:31:59.047Z,-0.61
2023-04-03T13:34:27.510Z,-0.57
2023-04-03T13:36:55.027Z,-0.62
2023-04-03T13:39:22.642Z,-0.78
2023-04-03T13:41:50.415Z,-0.81
2023-04-03T13:44:17.958Z,-0.78
2023-04-03T13:46:45.848Z,-0.75
2023-04-03T13:49:13.365Z,-0.75
2023-04-03T13:51:40.950Z,-0.75
2023-04-03T13:54:08.779Z,-0.76
2023-04-03T13:56:38.282Z,-0.78
2023-04-03T13:59:05.975Z,-0.79
2023-04-03T14:01:33.567Z,-0.80
2023-04-03T14:04:01.985Z,-0.81
2023-04-03T14:06:30.384Z,-0.81
2023-04-03T14:08:57.866Z,-0.89
2023-04-03T14:11:25.401Z,-0.95
2023-04-03T14:13:52.910Z,-0.99
2023-04-03T14:16:20.721Z,-1.04
2023-04-03T14:18:48.283Z,-1.07
2023-04-03T14:21:15.785Z,-1.15
2023-04-03T14:23:43.309Z,-1.14
2023-04-03T14:26:10.952Z,-1.13
2023-04-03T14:28:39.998Z,-1.15
2023-04-03T14:31:08.094Z,-1.11
2023-04-03T14:33:36.659Z,-1.04
2023-04-03T14:36:04.334Z,-1.06
2023-04-03T14:38:32.299Z,-1.04
2023-04-03T14:41:09.778Z,-1.01
2023-04-03T14:43:43.542Z,-0.98
2023-04-03T14:46:11.246Z,-0.93
2023-04-03T14:48:38.827Z,-0.92
2023-04-03T14:51:06.590Z,-0.92
2023-04-03T14:56:05.737Z,-0.86
2023-04-03T14:58:33.511Z,-0.87
2023-04-03T15:01:01.121Z,-0.88
2023-04-03T15:03:28.744Z,-0.89
2023-04-03T15:05:56.510Z,-0.93
2023-04-03T15:08:24.930Z,-0.96
2023-04-03T15:10:53.778Z,-1.00
2023-04-03T15:13:21.560Z,-1.00
2023-04-03T15:15:49.109Z,-0.96
2023-04-03T15:18:16.854Z,-0.91
2023-04-03T15:20:44.686Z,-0.91
2023-04-03T15:23:12.183Z,-0.90
2023-04-03T15:25:40.488Z,-0.89
2023-04-03T15:28:08.040Z,-0.80
2023-04-03T15:30:35.697Z,-0.76
2023-04-03T15:33:03.280Z,-0.75
2023-04-03T15:35:30.922Z,-0.76
2023-04-03T15:37:58.477Z,-0.80
2023-04-03T15:40:26.767Z,-0.82
2023-04-03T15:42:54.531Z,-0.86
2023-04-03T15:45:22.829Z,-0.92
2023-04-03T15:47:54.486Z,-0.99
2023-04-03T15:50:23.988Z,-1.05
2023-04-03T15:52:55.175Z,-1.12
2023-04-03T15:55:22.773Z,-1.15
2023-04-03T15:57:50.598Z,-1.19
2023-04-03T16:00:18.276Z,-1.18
2023-04-03T16:02:45.904Z,-1.16
2023-04-03T16:05:13.901Z,-1.15
2023-04-03T16:07:41.446Z,-1.12
2023-04-03T16:10:09.024Z,-1.12
2023-04-03T16:12:36.648Z,-1.08
2023-04-03T16:15:04.188Z,-1.07
2023-04-03T16:17:31.947Z,-1.09
2023-04-03T16:19:59.616Z,-1.11
2023-04-03T16:22:27.312Z,-1.12
2023-04-03T16:24:54.858Z,-1.14
2023-04-03T16:27:22.766Z,-1.15
2023-04-03T16:29:50.775Z,-1.16
2023-04-03T16:32:18.540Z,-1.19
2023-04-03T16:34:46.057Z,-1.21
2023-04-03T16:37:13.990Z,-1.23
2023-04-03T16:39:41.872Z,-1.23
2023-04-03T16:42:10.810Z,-1.25
2023-04-03T16:44:38.445Z,-1.27
2023-04-03T16:47:05.973Z,-1.27
2023-04-03T16:49:35.134Z,-1.30
2023-04-03T16:52:02.931Z,-1.31
2023-04-03T16:54:30.553Z,-1.32
2023-04-03T16:56:58.564Z,-1.33
2023-04-03T16:59:26.302Z,-1.34
2023-04-03T17:01:54.000Z,-1.33
2023-04-03T17:04:21.725Z,-1.30
2023-04-03T17:06:49.691Z,-1.18
2023-04-03T17:09:17.245Z,-1.11
2023-04-03T17:11:47.440Z,-1.09
2023-04-03T17:14:16.606Z,-1.12
2023-04-03T17:16:44.361Z,-1.16
2023-04-03T17:19:13.011Z,-1.18
2023-04-03T17:21:40.723Z,-1.16
2023-04-03T17:24:09.473Z,-1.16
2023-04-03T17:26:40.054Z,-1.13
2023-04-03T17:29:07.593Z,-1.12
2023-04-03T17:31:35.576Z,-1.17
2023-04-03T17:34:03.771Z,-1.16
2023-04-03T17:36:31.425Z,-1.10
2023-04-03T17:38:59.376Z,-1.06
2023-04-03T17:41:27.192Z,-1.02
2023-04-03T17:43:57.026Z,-1.00
2023-04-03T17:46:24.852Z,-0.96
2023-04-03T17:48:52.619Z,-0.90
2023-04-03T17:51:20.984Z,-0.87
2023-04-03T17:53:48.677Z,-0.92
2023-04-03T17:56:16.606Z,-1.02
2023-04-03T17:58:44.405Z,-1.07
2023-04-03T18:01:12.523Z,-1.08
2023-04-03T18:03:40.665Z,-1.09
2023-04-03T18:06:08.827Z,-1.09
2023-04-03T18:08:36.709Z,-1.12
2023-04-03T18:11:04.639Z,-1.14
2023-04-03T18:13:32.779Z,-1.19
2023-04-03T18:16:01.332Z,-1.24
2023-04-03T18:18:29.094Z,-1.25
2023-04-03T18:20:56.962Z,-1.24
2023-04-03T18:23:24.986Z,-1.23
2023-04-03T18:25:52.576Z,-1.23
2023-04-03T18:28:20.479Z,-1.22
2023-04-03T18:30:48.306Z,-1.24
2023-04-03T18:33:16.180Z,-1.28
2023-04-03T18:35:43.925Z,-1.30
2023-04-03T18:38:11.852Z,-1.33
2023-04-03T18:40:40.868Z,-1.34
2023-04-03T18:43:09.127Z,-1.37
2023-04-03T18:45:36.789Z,-1.41
2023-04-03T18:48:04.734Z,-1.46
2023-04-03T18:50:32.695Z,-1.50
2023-04-03T18:53:00.833Z,-1.53
2023-04-03T18:55:28.620Z,-1.58
2023-04-03T18:57:56.487Z,-1.63
2023-04-03T19:00:27.518Z,-1.66
2023-04-03T19:02:55.542Z,-1.63
2023-04-03T19:05:24.068Z,-1.61
2023-04-03T19:07:51.774Z,-1.53
2023-04-03T19:10:20.148Z,-1.44
2023-04-03T19:12:47.878Z,-1.36
2023-04-03T19:15:15.763Z,-1.27
2023-04-03T19:17:43.863Z,-1.20
2023-04-03T19:20:11.582Z,-1.14
2023-04-03T19:22:39.300Z,-1.09
2023-04-03T19:25:07.335Z,-1.08
2023-04-03T19:27:35.716Z,-1.04
2023-04-03T19:30:03.226Z,-1.08
2023-04-03T19:32:31.350Z,-1.14
2023-04-03T19:34:59.384Z,-1.18
2023-04-03T19:37:27.335Z,-1.19
2023-04-03T19:39:55.044Z,-1.18
2023-04-03T19:42:22.574Z,-1.20
2023-04-03T19:44:50.152Z,-1.17
2023-04-03T19:47:19.634Z,-1.16
2023-04-03T19:49:47.108Z,-1.17
2023-04-03T19:52:14.768Z,-1.18
2023-04-03T19:54:42.874Z,-1.17
2023-04-03T19:57:10.875Z,-1.13
2023-04-03T19:59:38.773Z,-1.09
2023-04-03T20:02:06.461Z,-1.06
2023-04-03T20:04:34.104Z,-1.00
2023-04-03T20:07:02.335Z,-0.96
2023-04-03T20:09:29.974Z,-0.98
2023-04-03T20:11:57.988Z,-0.97
2023-04-03T20:14:26.101Z,-1.00
2023-04-03T20:16:53.828Z,-1.09
2023-04-03T20:19:21.698Z,-1.13
2023-04-03T20:21:50.154Z,-1.21
2023-04-03T20:24:18.047Z,-1.24
2023-04-03T20:26:47.245Z,-1.28
2023-04-03T20:29:16.559Z,-1.33
2023-04-03T20:31:44.200Z,-1.34
2023-04-03T20:34:11.977Z,-1.35
2023-04-03T20:36:39.488Z,-1.37
2023-04-03T20:39:07.422Z,-1.39
2023-04-03T20:41:37.638Z,-1.38
2023-04-03T20:44:05.656Z,-1.38
2023-04-03T20:46:48.926Z,-1.36
2023-04-03T20:49:20.910Z,-1.30
2023-04-03T20:51:48.890Z,-1.29
2023-04-03T20:54:16.439Z,-1.29
2023-04-03T20:56:44.347Z,-1.31
2023-04-03T20:59:14.047Z,-1.34
2023-04-03T21:01:42.383Z,-1.37
2023-04-03T21:04:09.861Z,-1.37
2023-04-03T21:06:38.620Z,-1.38
2023-04-03T21:09:06.770Z,-1.39
2023-04-03T21:11:34.347Z,-1.40
2023-04-03T21:14:01.869Z,-1.41
2023-04-03T21:16:29.471Z,-1.42
2023-04-03T21:18:57.119Z,-1.43
2023-04-03T21:21:26.072Z,-1.46
2023-04-03T21:23:53.716Z,-1.52
2023-04-03T21:26:24.304Z,-1.54
2023-04-03T21:28:52.691Z,-1.58
2023-04-03T21:31:20.716Z,-1.60
2023-04-03T21:33:48.225Z,-1.58
2023-04-03T21:36:16.332Z,-1.55
2023-04-03T21:38:46.026Z,-1.55
2023-04-03T21:41:13.579Z,-1.51
2023-04-03T21:43:41.538Z,-1.52
2023-04-03T21:46:09.152Z,-1.54
2023-04-03T21:48:36.808Z,-1.55
2023-04-03T21:51:04.464Z,-1.58
2023-04-03T21:53:36.460Z,-1.60
2023-04-03T21:56:04.223Z,-1.62
2023-04-03T21:58:32.266Z,-1.65
2023-04-03T22:01:00.048Z,-1.68
2023-04-03T22:03:27.583Z,-1.73
2023-04-03T22:05:55.117Z,-1.75
2023-04-03T22:08:22.644Z,-1.79
2023-04-03T22:10:50.495Z,-1.85
2023-04-03T22:13:18.011Z,-1.88
2023-04-03T22:15:47.413Z,-1.90
2023-04-03T22:18:14.962Z,-1.93
2023-04-03T22:20:42.559Z,-1.95
2023-04-03T22:23:10.419Z,-1.98
2023-04-03T22:25:38.014Z,-2.00
2023-04-03T22:28:06.123Z,-2.06
2023-04-03T22:30:33.825Z,-2.10
2023-04-03T22:33:01.492Z,-2.14
2023-04-03T22:35:29.289Z,-2.15
2023-04-03T22:37:56.854Z,-2.15
2023-04-03T22:40:24.380Z,-2.19
2023-04-03T22:42:51.914Z,-2.22
2023-04-03T22:45:19.809Z,-2.23
2023-04-03T22:47:47.805Z,-2.25
2023-04-03T22:50:15.788Z,-2.25
2023-04-03T22:52:43.381Z,-2.23
2023-04-03T22:55:19.059Z,-2.23
2023-04-03T22:57:47.242Z,-2.23
2023-04-03T23:00:14.745Z,-2.28
2023-04-03T23:02:42.372Z,-2.29
2023-04-03T23:05:10.132Z,-2.29
2023-04-03T23:07:37.706Z,-2.27
2023-04-03T23:10:05.222Z,-2.26
2023-04-03T23:12:32.735Z,-2.25
2023-04-03T23:15:00.320Z,-2.23
2023-04-03T23:17:27.879Z,-2.20
2023-04-03T23:19:55.443Z,-2.17
2023-04-03T23:22:22.923Z,-2.18
2023-04-03T23:24:50.480Z,-2.18
2023-04-03T23:27:18.020Z,-2.17
2023-04-03T23:29:45.555Z,-2.12
2023-04-03T23:32:13.249Z,-2.07
2023-04-03T23:34:40.912Z,-2.06
2023-04-03T23:37:08.785Z,-2.04
2023-04-03T23:39:36.660Z,-2.04
2023-04-03T23:42:09.374Z,-2.03
2023-04-03T23:44:37.344Z,-2.00
2023-04-03T23:47:04.825Z,-2.02
2023-04-03T23:49:32.369Z,-2.03
2023-04-03T23:52:01.209Z,-2.04
2023-04-03T23:54:29.024Z,-2.02
2023-04-03T23:56:56.642Z,-1.99
2023-04-03T23:59:24.170Z,-1.96
